sensor_id;sensor_type;location;lat;lon;timestamp;P1;durP1;ratioP1;P2;durP2;ratioP2
9508;SDS011;4792;50.088;8.122;2024-03-02T00:00:55;17.43;;;13.60;;
9508;SDS011;4792;50.088;8.122;2024-03-02T00:03:23;18.93;;;13.10;;
9508;SDS011;4792;50.088;8.122;2024-03-02T00:05:51;17.80;;;13.10;;
9508;SDS011;4792;50.088;8.122;2024-03-02T00:08:22;20.27;;;12.97;;
9508;SDS011;4792;50.088;8.122;2024-03-02T00:10:51;17.67;;;13.07;;
9508;SDS011;4792;50.088;8.122;2024-03-02T00:13:20;18.50;;;13.23;;
9508;SDS011;4792;50.088;8.122;2024-03-02T00:15:52;19.37;;;12.50;;
9508;SDS011;4792;50.088;8.122;2024-03-02T00:18:23;18.50;;;13.17;;
9508;SDS011;4792;50.088;8.122;2024-03-02T00:20:53;18.97;;;12.77;;
9508;SDS011;4792;50.088;8.122;2024-03-02T00:23:22;21.00;;;13.30;;
9508;SDS011;4792;50.088;8.122;2024-03-02T00:25:51;18.17;;;11.80;;
9508;SDS011;4792;50.088;8.122;2024-03-02T00:28:20;19.13;;;12.80;;
9508;SDS011;4792;50.088;8.122;2024-03-02T00:30:57;15.67;;;11.97;;
9508;SDS011;4792;50.088;8.122;2024-03-02T00:33:27;19.57;;;13.80;;
9508;SDS011;4792;50.088;8.122;2024-03-02T00:35:56;18.70;;;13.13;;
9508;SDS011;4792;50.088;8.122;2024-03-02T00:38:24;17.87;;;13.17;;
9508;SDS011;4792;50.088;8.122;2024-03-02T00:40:51;18.17;;;13.53;;
9508;SDS011;4792;50.088;8.122;2024-03-02T00:43:31;16.67;;;12.57;;
9508;SDS011;4792;50.088;8.122;2024-03-02T00:46:12;19.13;;;12.93;;
9508;SDS011;4792;50.088;8.122;2024-03-02T00:48:42;17.23;;;12.90;;
9508;SDS011;4792;50.088;8.122;2024-03-02T00:51:15;18.50;;;13.63;;
9508;SDS011;4792;50.088;8.122;2024-03-02T00:53:43;17.53;;;13.20;;
9508;SDS011;4792;50.088;8.122;2024-03-02T00:56:11;18.63;;;12.43;;
9508;SDS011;4792;50.088;8.122;2024-03-02T00:58:39;18.13;;;13.50;;
9508;SDS011;4792;50.088;8.122;2024-03-02T01:01:06;18.77;;;12.63;;
9508;SDS011;4792;50.088;8.122;2024-03-02T01:03:35;18.00;;;13.33;;
9508;SDS011;4792;50.088;8.122;2024-03-02T01:06:04;18.40;;;13.73;;
9508;SDS011;4792;50.088;8.122;2024-03-02T01:08:33;17.30;;;13.13;;
9508;SDS011;4792;50.088;8.122;2024-03-02T01:11:01;20.50;;;14.20;;
9508;SDS011;4792;50.088;8.122;2024-03-02T01:13:29;19.57;;;13.70;;
9508;SDS011;4792;50.088;8.122;2024-03-02T01:15:56;19.73;;;14.73;;
9508;SDS011;4792;50.088;8.122;2024-03-02T01:18:24;20.93;;;14.87;;
9508;SDS011;4792;50.088;8.122;2024-03-02T01:20:53;20.53;;;15.40;;
9508;SDS011;4792;50.088;8.122;2024-03-02T01:23:22;19.13;;;14.23;;
9508;SDS011;4792;50.088;8.122;2024-03-02T01:25:50;20.13;;;14.63;;
9508;SDS011;4792;50.088;8.122;2024-03-02T01:28:18;20.63;;;15.23;;
9508;SDS011;4792;50.088;8.122;2024-03-02T01:30:47;22.20;;;16.10;;
9508;SDS011;4792;50.088;8.122;2024-03-02T01:33:16;22.53;;;16.73;;
9508;SDS011;4792;50.088;8.122;2024-03-02T01:35:44;23.87;;;16.67;;
9508;SDS011;4792;50.088;8.122;2024-03-02T01:38:13;24.17;;;16.97;;
9508;SDS011;4792;50.088;8.122;2024-03-02T01:40:41;22.70;;;17.27;;
9508;SDS011;4792;50.088;8.122;2024-03-02T01:43:10;26.73;;;17.63;;
9508;SDS011;4792;50.088;8.122;2024-03-02T01:45:38;23.97;;;17.03;;
9508;SDS011;4792;50.088;8.122;2024-03-02T01:48:06;27.23;;;17.47;;
9508;SDS011;4792;50.088;8.122;2024-03-02T01:50:34;24.17;;;16.57;;
9508;SDS011;4792;50.088;8.122;2024-03-02T01:53:02;23.87;;;16.93;;
9508;SDS011;4792;50.088;8.122;2024-03-02T01:55:31;23.40;;;15.80;;
9508;SDS011;4792;50.088;8.122;2024-03-02T01:58:01;24.60;;;16.93;;
9508;SDS011;4792;50.088;8.122;2024-03-02T02:00:28;24.20;;;16.57;;
9508;SDS011;4792;50.088;8.122;2024-03-02T02:02:56;21.57;;;16.90;;
9508;SDS011;4792;50.088;8.122;2024-03-02T02:05:24;25.57;;;16.90;;
9508;SDS011;4792;50.088;8.122;2024-03-02T02:07:52;24.37;;;17.47;;
9508;SDS011;4792;50.088;8.122;2024-03-02T02:10:20;23.70;;;17.03;;
9508;SDS011;4792;50.088;8.122;2024-03-02T02:12:49;24.60;;;17.50;;
9508;SDS011;4792;50.088;8.122;2024-03-02T02:15:26;26.43;;;18.03;;
9508;SDS011;4792;50.088;8.122;2024-03-02T02:17:55;24.63;;;17.60;;
9508;SDS011;4792;50.088;8.122;2024-03-02T02:20:23;26.40;;;18.27;;
9508;SDS011;4792;50.088;8.122;2024-03-02T02:22:59;21.93;;;16.37;;
9508;SDS011;4792;50.088;8.122;2024-03-02T02:25:27;25.47;;;16.10;;
9508;SDS011;4792;50.088;8.122;2024-03-02T02:27:56;24.00;;;16.40;;
9508;SDS011;4792;50.088;8.122;2024-03-02T02:30:25;23.13;;;16.17;;
9508;SDS011;4792;50.088;8.122;2024-03-02T02:32:54;21.57;;;15.63;;
9508;SDS011;4792;50.088;8.122;2024-03-02T02:35:22;25.40;;;17.70;;
9508;SDS011;4792;50.088;8.122;2024-03-02T02:37:51;24.90;;;16.77;;
9508;SDS011;4792;50.088;8.122;2024-03-02T02:40:21;24.43;;;17.70;;
9508;SDS011;4792;50.088;8.122;2024-03-02T02:42:49;25.40;;;17.67;;
9508;SDS011;4792;50.088;8.122;2024-03-02T02:45:18;26.27;;;17.03;;
9508;SDS011;4792;50.088;8.122;2024-03-02T02:47:46;26.10;;;17.07;;
9508;SDS011;4792;50.088;8.122;2024-03-02T02:50:14;25.43;;;17.43;;
9508;SDS011;4792;50.088;8.122;2024-03-02T02:52:41;27.37;;;18.17;;
9508;SDS011;4792;50.088;8.122;2024-03-02T02:55:10;25.37;;;17.47;;
9508;SDS011;4792;50.088;8.122;2024-03-02T02:57:40;27.53;;;18.07;;
9508;SDS011;4792;50.088;8.122;2024-03-02T03:00:10;26.73;;;17.67;;
9508;SDS011;4792;50.088;8.122;2024-03-02T03:02:40;25.43;;;17.17;;
9508;SDS011;4792;50.088;8.122;2024-03-02T03:05:09;24.80;;;17.50;;
9508;SDS011;4792;50.088;8.122;2024-03-02T03:07:37;26.47;;;17.77;;
9508;SDS011;4792;50.088;8.122;2024-03-02T03:10:06;27.80;;;16.97;;
9508;SDS011;4792;50.088;8.122;2024-03-02T03:12:34;25.57;;;17.90;;
9508;SDS011;4792;50.088;8.122;2024-03-02T03:15:04;28.20;;;17.27;;
9508;SDS011;4792;50.088;8.122;2024-03-02T03:17:33;32.13;;;19.17;;
9508;SDS011;4792;50.088;8.122;2024-03-02T03:20:01;27.23;;;18.17;;
9508;SDS011;4792;50.088;8.122;2024-03-02T03:22:30;26.73;;;17.97;;
9508;SDS011;4792;50.088;8.122;2024-03-02T03:24:58;28.70;;;18.23;;
9508;SDS011;4792;50.088;8.122;2024-03-02T03:27:26;28.13;;;17.57;;
9508;SDS011;4792;50.088;8.122;2024-03-02T03:29:54;23.87;;;17.27;;
9508;SDS011;4792;50.088;8.122;2024-03-02T03:32:23;27.27;;;16.40;;
9508;SDS011;4792;50.088;8.122;2024-03-02T03:34:51;30.53;;;18.43;;
9508;SDS011;4792;50.088;8.122;2024-03-02T03:37:18;25.13;;;16.63;;
9508;SDS011;4792;50.088;8.122;2024-03-02T03:39:46;24.37;;;16.83;;
9508;SDS011;4792;50.088;8.122;2024-03-02T03:42:14;28.23;;;18.60;;
9508;SDS011;4792;50.088;8.122;2024-03-02T03:44:42;25.37;;;17.70;;
9508;SDS011;4792;50.088;8.122;2024-03-02T03:47:10;27.13;;;17.50;;
9508;SDS011;4792;50.088;8.122;2024-03-02T03:49:38;28.00;;;18.37;;
9508;SDS011;4792;50.088;8.122;2024-03-02T03:52:06;25.10;;;16.93;;
9508;SDS011;4792;50.088;8.122;2024-03-02T03:54:34;26.27;;;16.90;;
9508;SDS011;4792;50.088;8.122;2024-03-02T03:57:03;25.70;;;16.77;;
9508;SDS011;4792;50.088;8.122;2024-03-02T03:59:31;23.13;;;16.47;;
9508;SDS011;4792;50.088;8.122;2024-03-02T04:01:59;26.63;;;16.73;;
9508;SDS011;4792;50.088;8.122;2024-03-02T04:04:26;26.23;;;17.83;;
9508;SDS011;4792;50.088;8.122;2024-03-02T04:06:55;26.67;;;17.53;;
9508;SDS011;4792;50.088;8.122;2024-03-02T04:09:23;24.57;;;16.03;;
9508;SDS011;4792;50.088;8.122;2024-03-02T04:11:51;26.13;;;16.93;;
9508;SDS011;4792;50.088;8.122;2024-03-02T04:14:20;23.00;;;16.40;;
9508;SDS011;4792;50.088;8.122;2024-03-02T04:16:47;23.60;;;16.70;;
9508;SDS011;4792;50.088;8.122;2024-03-02T04:19:15;24.97;;;17.97;;
9508;SDS011;4792;50.088;8.122;2024-03-02T04:21:43;22.97;;;16.67;;
9508;SDS011;4792;50.088;8.122;2024-03-02T04:24:12;24.07;;;15.87;;
9508;SDS011;4792;50.088;8.122;2024-03-02T04:26:39;24.87;;;16.07;;
9508;SDS011;4792;50.088;8.122;2024-03-02T04:29:07;26.83;;;16.90;;
9508;SDS011;4792;50.088;8.122;2024-03-02T04:31:35;24.67;;;16.77;;
9508;SDS011;4792;50.088;8.122;2024-03-02T04:34:02;26.23;;;17.47;;
9508;SDS011;4792;50.088;8.122;2024-03-02T04:36:30;25.77;;;16.93;;
9508;SDS011;4792;50.088;8.122;2024-03-02T04:38:58;27.53;;;16.50;;
9508;SDS011;4792;50.088;8.122;2024-03-02T04:41:27;23.80;;;15.67;;
9508;SDS011;4792;50.088;8.122;2024-03-02T04:43:54;21.67;;;15.17;;
9508;SDS011;4792;50.088;8.122;2024-03-02T04:46:22;22.27;;;15.53;;
9508;SDS011;4792;50.088;8.122;2024-03-02T04:48:51;22.10;;;15.80;;
9508;SDS011;4792;50.088;8.122;2024-03-02T04:51:22;22.57;;;14.77;;
9508;SDS011;4792;50.088;8.122;2024-03-02T04:53:49;20.73;;;14.67;;
9508;SDS011;4792;50.088;8.122;2024-03-02T04:56:17;26.00;;;15.47;;
9508;SDS011;4792;50.088;8.122;2024-03-02T04:59:07;22.77;;;14.63;;
9508;SDS011;4792;50.088;8.122;2024-03-02T05:01:35;23.80;;;14.57;;
9508;SDS011;4792;50.088;8.122;2024-03-02T05:04:03;21.97;;;13.40;;
9508;SDS011;4792;50.088;8.122;2024-03-02T05:06:30;20.57;;;13.73;;
9508;SDS011;4792;50.088;8.122;2024-03-02T05:08:58;22.17;;;15.77;;
9508;SDS011;4792;50.088;8.122;2024-03-02T05:11:26;19.40;;;13.97;;
9508;SDS011;4792;50.088;8.122;2024-03-02T05:14:16;21.70;;;14.13;;
9508;SDS011;4792;50.088;8.122;2024-03-02T05:16:44;20.13;;;14.23;;
9508;SDS011;4792;50.088;8.122;2024-03-02T05:19:11;20.00;;;13.63;;
9508;SDS011;4792;50.088;8.122;2024-03-02T05:21:39;22.60;;;13.63;;
9508;SDS011;4792;50.088;8.122;2024-03-02T05:24:07;22.03;;;15.00;;
9508;SDS011;4792;50.088;8.122;2024-03-02T05:26:34;18.90;;;13.90;;
9508;SDS011;4792;50.088;8.122;2024-03-02T05:29:02;21.80;;;14.50;;
9508;SDS011;4792;50.088;8.122;2024-03-02T05:31:31;19.43;;;13.70;;
9508;SDS011;4792;50.088;8.122;2024-03-02T05:33:59;18.37;;;12.83;;
9508;SDS011;4792;50.088;8.122;2024-03-02T05:36:26;17.77;;;12.63;;
9508;SDS011;4792;50.088;8.122;2024-03-02T05:38:54;22.13;;;14.00;;
9508;SDS011;4792;50.088;8.122;2024-03-02T05:41:22;19.30;;;13.53;;
9508;SDS011;4792;50.088;8.122;2024-03-02T05:43:49;19.07;;;13.67;;
9508;SDS011;4792;50.088;8.122;2024-03-02T05:46:17;21.23;;;13.50;;
9508;SDS011;4792;50.088;8.122;2024-03-02T05:48:46;19.33;;;14.20;;
9508;SDS011;4792;50.088;8.122;2024-03-02T05:51:13;20.50;;;13.23;;
9508;SDS011;4792;50.088;8.122;2024-03-02T05:53:41;20.87;;;13.87;;
9508;SDS011;4792;50.088;8.122;2024-03-02T05:56:09;16.97;;;13.10;;
9508;SDS011;4792;50.088;8.122;2024-03-02T05:58:38;21.50;;;14.37;;
9508;SDS011;4792;50.088;8.122;2024-03-02T06:01:19;21.00;;;14.10;;
9508;SDS011;4792;50.088;8.122;2024-03-02T06:03:50;22.20;;;14.77;;
9508;SDS011;4792;50.088;8.122;2024-03-02T06:06:17;17.33;;;12.57;;
9508;SDS011;4792;50.088;8.122;2024-03-02T06:08:45;20.03;;;13.23;;
9508;SDS011;4792;50.088;8.122;2024-03-02T06:11:13;21.90;;;13.70;;
9508;SDS011;4792;50.088;8.122;2024-03-02T06:13:40;18.70;;;13.70;;
9508;SDS011;4792;50.088;8.122;2024-03-02T06:16:08;17.33;;;12.80;;
9508;SDS011;4792;50.088;8.122;2024-03-02T06:18:36;16.40;;;12.00;;
9508;SDS011;4792;50.088;8.122;2024-03-02T06:21:05;14.93;;;11.73;;
9508;SDS011;4792;50.088;8.122;2024-03-02T06:23:32;17.93;;;12.90;;
9508;SDS011;4792;50.088;8.122;2024-03-02T06:26:01;16.17;;;11.73;;
9508;SDS011;4792;50.088;8.122;2024-03-02T06:28:29;17.10;;;11.57;;
9508;SDS011;4792;50.088;8.122;2024-03-02T06:30:56;19.60;;;12.50;;
9508;SDS011;4792;50.088;8.122;2024-03-02T06:33:24;18.60;;;12.13;;
9508;SDS011;4792;50.088;8.122;2024-03-02T06:35:52;15.93;;;11.80;;
9508;SDS011;4792;50.088;8.122;2024-03-02T06:38:21;17.40;;;11.37;;
9508;SDS011;4792;50.088;8.122;2024-03-02T06:40:49;16.37;;;11.60;;
9508;SDS011;4792;50.088;8.122;2024-03-02T06:43:16;13.27;;;10.57;;
9508;SDS011;4792;50.088;8.122;2024-03-02T06:45:44;15.07;;;11.47;;
9508;SDS011;4792;50.088;8.122;2024-03-02T06:48:12;18.53;;;11.57;;
9508;SDS011;4792;50.088;8.122;2024-03-02T06:50:44;12.43;;;9.67;;
9508;SDS011;4792;50.088;8.122;2024-03-02T06:53:12;16.47;;;10.97;;
9508;SDS011;4792;50.088;8.122;2024-03-02T06:55:41;16.17;;;10.63;;
9508;SDS011;4792;50.088;8.122;2024-03-02T06:58:09;12.40;;;9.80;;
9508;SDS011;4792;50.088;8.122;2024-03-02T07:00:36;13.90;;;9.93;;
9508;SDS011;4792;50.088;8.122;2024-03-02T07:03:04;16.57;;;10.40;;
9508;SDS011;4792;50.088;8.122;2024-03-02T07:05:32;15.83;;;10.77;;
9508;SDS011;4792;50.088;8.122;2024-03-02T07:07:59;16.50;;;11.47;;
9508;SDS011;4792;50.088;8.122;2024-03-02T07:10:27;16.07;;;11.30;;
9508;SDS011;4792;50.088;8.122;2024-03-02T07:12:56;14.23;;;10.00;;
9508;SDS011;4792;50.088;8.122;2024-03-02T07:15:24;16.23;;;10.73;;
9508;SDS011;4792;50.088;8.122;2024-03-02T07:18:16;15.57;;;10.67;;
9508;SDS011;4792;50.088;8.122;2024-03-02T07:20:43;15.37;;;10.33;;
9508;SDS011;4792;50.088;8.122;2024-03-02T07:23:11;13.63;;;9.73;;
9508;SDS011;4792;50.088;8.122;2024-03-02T07:25:39;13.40;;;9.43;;
9508;SDS011;4792;50.088;8.122;2024-03-02T07:28:11;15.57;;;10.33;;
9508;SDS011;4792;50.088;8.122;2024-03-02T07:30:39;12.80;;;9.37;;
9508;SDS011;4792;50.088;8.122;2024-03-02T07:33:07;13.27;;;9.83;;
9508;SDS011;4792;50.088;8.122;2024-03-02T07:35:34;15.73;;;10.07;;
9508;SDS011;4792;50.088;8.122;2024-03-02T07:38:02;13.47;;;9.70;;
9508;SDS011;4792;50.088;8.122;2024-03-02T07:40:30;13.40;;;9.57;;
9508;SDS011;4792;50.088;8.122;2024-03-02T07:42:58;15.70;;;10.23;;
9508;SDS011;4792;50.088;8.122;2024-03-02T07:45:27;14.17;;;9.73;;
9508;SDS011;4792;50.088;8.122;2024-03-02T07:47:55;13.63;;;9.87;;
9508;SDS011;4792;50.088;8.122;2024-03-02T07:50:22;13.07;;;9.40;;
9508;SDS011;4792;50.088;8.122;2024-03-02T07:52:50;12.47;;;9.13;;
9508;SDS011;4792;50.088;8.122;2024-03-02T07:55:17;12.40;;;8.13;;
9508;SDS011;4792;50.088;8.122;2024-03-02T07:57:45;13.87;;;9.33;;
9508;SDS011;4792;50.088;8.122;2024-03-02T08:00:13;11.43;;;9.00;;
9508;SDS011;4792;50.088;8.122;2024-03-02T08:02:43;14.17;;;8.70;;
9508;SDS011;4792;50.088;8.122;2024-03-02T08:05:10;11.90;;;9.03;;
9508;SDS011;4792;50.088;8.122;2024-03-02T08:07:38;10.37;;;8.50;;
9508;SDS011;4792;50.088;8.122;2024-03-02T08:10:07;11.10;;;8.20;;
9508;SDS011;4792;50.088;8.122;2024-03-02T08:12:35;10.27;;;8.07;;
9508;SDS011;4792;50.088;8.122;2024-03-02T08:15:03;12.50;;;8.57;;
9508;SDS011;4792;50.088;8.122;2024-03-02T08:17:31;11.53;;;8.50;;
9508;SDS011;4792;50.088;8.122;2024-03-02T08:20:05;10.90;;;8.17;;
9508;SDS011;4792;50.088;8.122;2024-03-02T08:22:34;10.87;;;8.07;;
9508;SDS011;4792;50.088;8.122;2024-03-02T08:25:02;12.33;;;8.77;;
9508;SDS011;4792;50.088;8.122;2024-03-02T08:27:30;15.53;;;8.03;;
9508;SDS011;4792;50.088;8.122;2024-03-02T08:29:58;12.37;;;8.47;;
9508;SDS011;4792;50.088;8.122;2024-03-02T08:32:26;11.60;;;8.30;;
9508;SDS011;4792;50.088;8.122;2024-03-02T08:34:53;13.53;;;8.67;;
9508;SDS011;4792;50.088;8.122;2024-03-02T08:37:22;15.27;;;9.00;;
9508;SDS011;4792;50.088;8.122;2024-03-02T08:39:50;10.97;;;8.80;;
9508;SDS011;4792;50.088;8.122;2024-03-02T08:42:18;11.00;;;8.57;;
9508;SDS011;4792;50.088;8.122;2024-03-02T08:44:46;14.63;;;8.40;;
9508;SDS011;4792;50.088;8.122;2024-03-02T08:47:14;13.00;;;8.33;;
9508;SDS011;4792;50.088;8.122;2024-03-02T08:49:41;11.50;;;9.17;;
9508;SDS011;4792;50.088;8.122;2024-03-02T08:52:09;12.30;;;8.73;;
9508;SDS011;4792;50.088;8.122;2024-03-02T08:54:38;12.97;;;8.80;;
9508;SDS011;4792;50.088;8.122;2024-03-02T08:57:06;9.67;;;7.70;;
9508;SDS011;4792;50.088;8.122;2024-03-02T08:59:34;10.60;;;7.80;;
9508;SDS011;4792;50.088;8.122;2024-03-02T09:02:01;11.63;;;8.50;;
9508;SDS011;4792;50.088;8.122;2024-03-02T09:04:31;12.73;;;8.83;;
9508;SDS011;4792;50.088;8.122;2024-03-02T09:07:00;12.67;;;8.47;;
9508;SDS011;4792;50.088;8.122;2024-03-02T09:09:28;10.90;;;7.93;;
9508;SDS011;4792;50.088;8.122;2024-03-02T09:11:59;11.87;;;8.43;;
9508;SDS011;4792;50.088;8.122;2024-03-02T09:14:27;14.13;;;9.10;;
9508;SDS011;4792;50.088;8.122;2024-03-02T09:16:55;10.97;;;8.80;;
9508;SDS011;4792;50.088;8.122;2024-03-02T09:19:22;12.70;;;8.67;;
9508;SDS011;4792;50.088;8.122;2024-03-02T09:21:50;11.27;;;9.13;;
9508;SDS011;4792;50.088;8.122;2024-03-02T09:24:18;12.97;;;8.93;;
9508;SDS011;4792;50.088;8.122;2024-03-02T09:26:45;11.13;;;8.47;;
9508;SDS011;4792;50.088;8.122;2024-03-02T09:29:14;14.40;;;8.53;;
9508;SDS011;4792;50.088;8.122;2024-03-02T09:31:42;13.67;;;8.93;;
9508;SDS011;4792;50.088;8.122;2024-03-02T09:34:10;12.00;;;8.30;;
9508;SDS011;4792;50.088;8.122;2024-03-02T09:36:38;12.53;;;8.80;;
9508;SDS011;4792;50.088;8.122;2024-03-02T09:39:07;10.33;;;8.70;;
9508;SDS011;4792;50.088;8.122;2024-03-02T09:41:36;14.17;;;10.13;;
9508;SDS011;4792;50.088;8.122;2024-03-02T09:44:03;16.27;;;9.67;;
9508;SDS011;4792;50.088;8.122;2024-03-02T09:46:33;15.20;;;9.23;;
9508;SDS011;4792;50.088;8.122;2024-03-02T09:49:02;10.50;;;8.47;;
9508;SDS011;4792;50.088;8.122;2024-03-02T09:51:30;14.30;;;8.60;;
9508;SDS011;4792;50.088;8.122;2024-03-02T09:53:58;12.23;;;9.23;;
9508;SDS011;4792;50.088;8.122;2024-03-02T09:56:42;13.43;;;8.97;;
9508;SDS011;4792;50.088;8.122;2024-03-02T09:59:10;12.10;;;8.70;;
9508;SDS011;4792;50.088;8.122;2024-03-02T10:01:41;13.13;;;8.30;;
9508;SDS011;4792;50.088;8.122;2024-03-02T10:04:25;10.33;;;8.37;;
9508;SDS011;4792;50.088;8.122;2024-03-02T10:07:08;13.07;;;8.23;;
9508;SDS011;4792;50.088;8.122;2024-03-02T10:09:37;11.77;;;8.63;;
9508;SDS011;4792;50.088;8.122;2024-03-02T10:12:05;14.40;;;9.20;;
9508;SDS011;4792;50.088;8.122;2024-03-02T10:14:34;13.17;;;8.70;;
9508;SDS011;4792;50.088;8.122;2024-03-02T10:17:04;11.50;;;8.60;;
9508;SDS011;4792;50.088;8.122;2024-03-02T10:19:32;12.20;;;9.17;;
9508;SDS011;4792;50.088;8.122;2024-03-02T10:22:01;12.20;;;9.27;;
9508;SDS011;4792;50.088;8.122;2024-03-02T10:24:34;11.80;;;8.23;;
9508;SDS011;4792;50.088;8.122;2024-03-02T10:27:07;13.53;;;9.67;;
9508;SDS011;4792;50.088;8.122;2024-03-02T10:29:36;13.13;;;9.17;;
9508;SDS011;4792;50.088;8.122;2024-03-02T10:32:07;14.07;;;8.80;;
9508;SDS011;4792;50.088;8.122;2024-03-02T10:34:45;11.53;;;9.03;;
9508;SDS011;4792;50.088;8.122;2024-03-02T10:37:13;12.63;;;9.03;;
9508;SDS011;4792;50.088;8.122;2024-03-02T10:39:43;11.63;;;9.37;;
9508;SDS011;4792;50.088;8.122;2024-03-02T10:42:14;11.13;;;8.37;;
9508;SDS011;4792;50.088;8.122;2024-03-02T10:44:42;13.73;;;9.50;;
9508;SDS011;4792;50.088;8.122;2024-03-02T10:47:12;11.93;;;9.13;;
9508;SDS011;4792;50.088;8.122;2024-03-02T10:49:39;14.53;;;10.07;;
9508;SDS011;4792;50.088;8.122;2024-03-02T10:52:09;11.67;;;9.27;;
9508;SDS011;4792;50.088;8.122;2024-03-02T10:54:36;13.07;;;9.40;;
9508;SDS011;4792;50.088;8.122;2024-03-02T10:57:07;12.03;;;9.27;;
9508;SDS011;4792;50.088;8.122;2024-03-02T10:59:37;12.47;;;9.03;;
9508;SDS011;4792;50.088;8.122;2024-03-02T11:02:06;15.13;;;10.13;;
9508;SDS011;4792;50.088;8.122;2024-03-02T11:04:36;12.07;;;9.07;;
9508;SDS011;4792;50.088;8.122;2024-03-02T11:07:04;13.43;;;9.67;;
9508;SDS011;4792;50.088;8.122;2024-03-02T11:09:34;11.73;;;9.43;;
9508;SDS011;4792;50.088;8.122;2024-03-02T11:12:03;13.00;;;8.90;;
9508;SDS011;4792;50.088;8.122;2024-03-02T11:14:33;15.13;;;10.30;;
9508;SDS011;4792;50.088;8.122;2024-03-02T11:17:02;13.07;;;9.60;;
9508;SDS011;4792;50.088;8.122;2024-03-02T11:19:31;12.93;;;9.57;;
9508;SDS011;4792;50.088;8.122;2024-03-02T11:22:00;12.67;;;9.13;;
9508;SDS011;4792;50.088;8.122;2024-03-02T11:24:30;11.67;;;8.87;;
9508;SDS011;4792;50.088;8.122;2024-03-02T11:27:04;12.40;;;8.67;;
9508;SDS011;4792;50.088;8.122;2024-03-02T11:29:43;11.80;;;8.70;;
9508;SDS011;4792;50.088;8.122;2024-03-02T11:32:15;10.00;;;7.87;;
9508;SDS011;4792;50.088;8.122;2024-03-02T11:34:44;9.03;;;6.97;;
9508;SDS011;4792;50.088;8.122;2024-03-02T11:37:15;9.37;;;6.80;;
9508;SDS011;4792;50.088;8.122;2024-03-02T11:39:44;8.93;;;6.83;;
9508;SDS011;4792;50.088;8.122;2024-03-02T11:42:12;10.53;;;6.97;;
9508;SDS011;4792;50.088;8.122;2024-03-02T11:44:42;11.50;;;8.50;;
9508;SDS011;4792;50.088;8.122;2024-03-02T11:47:11;8.47;;;5.80;;
9508;SDS011;4792;50.088;8.122;2024-03-02T11:49:42;10.53;;;6.07;;
9508;SDS011;4792;50.088;8.122;2024-03-02T11:52:11;10.33;;;5.83;;
9508;SDS011;4792;50.088;8.122;2024-03-02T11:54:43;8.03;;;6.03;;
9508;SDS011;4792;50.088;8.122;2024-03-02T11:57:14;9.97;;;6.00;;
9508;SDS011;4792;50.088;8.122;2024-03-02T11:59:43;6.87;;;5.97;;
9508;SDS011;4792;50.088;8.122;2024-03-02T12:02:14;9.03;;;6.07;;
9508;SDS011;4792;50.088;8.122;2024-03-02T12:04:44;10.70;;;5.97;;
9508;SDS011;4792;50.088;8.122;2024-03-02T12:07:18;8.10;;;5.73;;
9508;SDS011;4792;50.088;8.122;2024-03-02T12:09:48;7.07;;;5.70;;
9508;SDS011;4792;50.088;8.122;2024-03-02T12:12:16;7.80;;;6.20;;
9508;SDS011;4792;50.088;8.122;2024-03-02T12:14:50;9.27;;;6.43;;
9508;SDS011;4792;50.088;8.122;2024-03-02T12:17:18;9.07;;;5.97;;
9508;SDS011;4792;50.088;8.122;2024-03-02T12:19:46;8.80;;;5.67;;
9508;SDS011;4792;50.088;8.122;2024-03-02T12:22:13;7.63;;;5.90;;
9508;SDS011;4792;50.088;8.122;2024-03-02T12:24:42;9.93;;;6.33;;
9508;SDS011;4792;50.088;8.122;2024-03-02T12:27:13;8.70;;;6.30;;
9508;SDS011;4792;50.088;8.122;2024-03-02T12:29:42;9.53;;;6.47;;
9508;SDS011;4792;50.088;8.122;2024-03-02T12:32:10;7.53;;;6.20;;
9508;SDS011;4792;50.088;8.122;2024-03-02T12:34:38;8.20;;;6.20;;
9508;SDS011;4792;50.088;8.122;2024-03-02T12:37:06;9.30;;;6.70;;
9508;SDS011;4792;50.088;8.122;2024-03-02T12:39:33;10.43;;;5.87;;
9508;SDS011;4792;50.088;8.122;2024-03-02T12:42:02;7.23;;;5.83;;
9508;SDS011;4792;50.088;8.122;2024-03-02T12:44:31;10.20;;;6.30;;
9508;SDS011;4792;50.088;8.122;2024-03-02T12:46:59;9.10;;;5.40;;
9508;SDS011;4792;50.088;8.122;2024-03-02T12:49:27;7.00;;;5.90;;
9508;SDS011;4792;50.088;8.122;2024-03-02T12:51:56;6.47;;;4.73;;
9508;SDS011;4792;50.088;8.122;2024-03-02T12:54:24;7.53;;;3.77;;
9508;SDS011;4792;50.088;8.122;2024-03-02T12:56:53;6.10;;;4.00;;
9508;SDS011;4792;50.088;8.122;2024-03-02T12:59:21;5.53;;;4.60;;
9508;SDS011;4792;50.088;8.122;2024-03-02T13:01:54;5.80;;;4.80;;
9508;SDS011;4792;50.088;8.122;2024-03-02T13:04:24;5.23;;;4.27;;
9508;SDS011;4792;50.088;8.122;2024-03-02T13:06:52;7.50;;;5.80;;
9508;SDS011;4792;50.088;8.122;2024-03-02T13:09:20;5.10;;;3.87;;
9508;SDS011;4792;50.088;8.122;2024-03-02T13:11:48;6.53;;;5.07;;
9508;SDS011;4792;50.088;8.122;2024-03-02T13:14:17;9.30;;;5.23;;
9508;SDS011;4792;50.088;8.122;2024-03-02T13:16:44;7.13;;;5.00;;
9508;SDS011;4792;50.088;8.122;2024-03-02T13:19:15;10.50;;;5.30;;
9508;SDS011;4792;50.088;8.122;2024-03-02T13:21:42;6.70;;;4.77;;
9508;SDS011;4792;50.088;8.122;2024-03-02T13:24:10;7.60;;;4.93;;
9508;SDS011;4792;50.088;8.122;2024-03-02T13:26:38;6.67;;;5.53;;
9508;SDS011;4792;50.088;8.122;2024-03-02T13:29:06;8.03;;;5.83;;
9508;SDS011;4792;50.088;8.122;2024-03-02T13:31:34;5.70;;;4.47;;
9508;SDS011;4792;50.088;8.122;2024-03-02T13:34:02;8.80;;;4.57;;
9508;SDS011;4792;50.088;8.122;2024-03-02T13:36:31;8.57;;;5.10;;
9508;SDS011;4792;50.088;8.122;2024-03-02T13:38:58;7.40;;;4.53;;
9508;SDS011;4792;50.088;8.122;2024-03-02T13:41:26;6.73;;;4.67;;
9508;SDS011;4792;50.088;8.122;2024-03-02T13:43:54;6.50;;;4.73;;
9508;SDS011;4792;50.088;8.122;2024-03-02T13:46:22;7.33;;;4.57;;
9508;SDS011;4792;50.088;8.122;2024-03-02T13:48:49;4.97;;;3.83;;
9508;SDS011;4792;50.088;8.122;2024-03-02T13:51:17;6.00;;;3.80;;
9508;SDS011;4792;50.088;8.122;2024-03-02T13:53:46;8.27;;;4.83;;
9508;SDS011;4792;50.088;8.122;2024-03-02T13:56:14;7.40;;;5.03;;
9508;SDS011;4792;50.088;8.122;2024-03-02T13:58:42;5.17;;;4.50;;
9508;SDS011;4792;50.088;8.122;2024-03-02T14:01:09;5.60;;;4.20;;
9508;SDS011;4792;50.088;8.122;2024-03-02T14:03:37;6.00;;;3.87;;
9508;SDS011;4792;50.088;8.122;2024-03-02T14:06:05;3.67;;;2.90;;
9508;SDS011;4792;50.088;8.122;2024-03-02T14:08:32;4.13;;;3.10;;
9508;SDS011;4792;50.088;8.122;2024-03-02T14:11:03;3.87;;;3.03;;
9508;SDS011;4792;50.088;8.122;2024-03-02T14:13:31;5.50;;;3.37;;
9508;SDS011;4792;50.088;8.122;2024-03-02T14:15:58;4.37;;;3.23;;
9508;SDS011;4792;50.088;8.122;2024-03-02T14:18:26;6.47;;;4.17;;
9508;SDS011;4792;50.088;8.122;2024-03-02T14:20:54;4.77;;;3.40;;
9508;SDS011;4792;50.088;8.122;2024-03-02T14:23:22;4.93;;;3.53;;
9508;SDS011;4792;50.088;8.122;2024-03-02T14:25:52;4.87;;;3.20;;
9508;SDS011;4792;50.088;8.122;2024-03-02T14:28:21;4.53;;;3.40;;
9508;SDS011;4792;50.088;8.122;2024-03-02T14:31:08;4.77;;;3.30;;
9508;SDS011;4792;50.088;8.122;2024-03-02T14:33:36;3.60;;;2.97;;
9508;SDS011;4792;50.088;8.122;2024-03-02T14:36:04;3.23;;;2.70;;
9508;SDS011;4792;50.088;8.122;2024-03-02T14:38:32;4.47;;;3.03;;
9508;SDS011;4792;50.088;8.122;2024-03-02T14:41:00;4.83;;;3.43;;
9508;SDS011;4792;50.088;8.122;2024-03-02T14:43:30;4.43;;;3.13;;
9508;SDS011;4792;50.088;8.122;2024-03-02T14:45:58;5.40;;;3.20;;
9508;SDS011;4792;50.088;8.122;2024-03-02T14:48:26;5.57;;;3.93;;
9508;SDS011;4792;50.088;8.122;2024-03-02T14:50:54;7.43;;;4.00;;
9508;SDS011;4792;50.088;8.122;2024-03-02T14:53:21;6.67;;;3.50;;
9508;SDS011;4792;50.088;8.122;2024-03-02T14:55:49;4.13;;;3.30;;
9508;SDS011;4792;50.088;8.122;2024-03-02T14:58:17;4.13;;;3.20;;
9508;SDS011;4792;50.088;8.122;2024-03-02T15:00:47;5.10;;;3.23;;
9508;SDS011;4792;50.088;8.122;2024-03-02T15:03:15;3.97;;;2.97;;
9508;SDS011;4792;50.088;8.122;2024-03-02T15:05:43;6.67;;;2.53;;
9508;SDS011;4792;50.088;8.122;2024-03-02T15:08:11;3.60;;;2.70;;